createdAt,value
2024-05-09T00:01:15.313Z,12.90
2024-05-09T00:03:46.935Z,12.88
2024-05-09T00:06:17.064Z,12.84
2024-05-09T00:08:47.187Z,12.81
2024-05-09T00:11:20.542Z,12.74
2024-05-09T00:13:51.000Z,12.70
2024-05-09T00:16:21.279Z,12.67
2024-05-09T00:18:51.776Z,12.65
2024-05-09T00:21:21.977Z,12.63
2024-05-09T00:23:52.150Z,12.61
2024-05-09T00:26:24.884Z,12.56
2024-05-09T00:28:55.144Z,12.55
2024-05-09T00:31:27.663Z,12.51
2024-05-09T00:33:58.040Z,12.48
2024-05-09T00:36:28.279Z,12.45
2024-05-09T00:38:58.320Z,12.43
2024-05-09T00:41:30.991Z,12.39
2024-05-09T00:44:01.166Z,12.38
2024-05-09T00:46:31.240Z,12.34
2024-05-09T00:49:01.665Z,12.32
2024-05-09T00:51:32.336Z,12.28
2024-05-09T00:54:02.508Z,12.27
2024-05-09T00:56:38.024Z,12.22
2024-05-09T00:59:08.185Z,12.20
2024-05-09T01:01:38.573Z,12.16
2024-05-09T01:04:09.772Z,12.15
2024-05-09T01:06:39.930Z,12.12
2024-05-09T01:09:09.939Z,12.07
2024-05-09T01:11:43.895Z,12.04
2024-05-09T01:14:14.223Z,12.01
2024-05-09T01:16:45.073Z,11.99
2024-05-09T01:19:23.102Z,11.97
2024-05-09T01:21:53.280Z,11.95
2024-05-09T01:24:25.931Z,11.92
2024-05-09T01:26:56.112Z,11.91
2024-05-09T01:29:26.209Z,11.90
2024-05-09T01:31:59.113Z,11.86
2024-05-09T01:34:29.360Z,11.84
2024-05-09T01:36:59.445Z,11.83
2024-05-09T01:39:32.079Z,11.81
2024-05-09T01:42:02.110Z,11.77
2024-05-09T01:44:32.101Z,11.75
2024-05-09T01:47:02.348Z,11.70
2024-05-09T01:49:32.677Z,11.66
2024-05-09T01:52:02.823Z,11.65
2024-05-09T01:54:35.491Z,11.64
2024-05-09T01:57:05.568Z,11.62
2024-05-09T01:59:35.973Z,11.61
2024-05-09T02:02:06.289Z,11.59
2024-05-09T02:04:36.749Z,11.58
2024-05-09T02:07:08.039Z,11.56
2024-05-09T02:09:40.779Z,11.55
2024-05-09T02:12:11.173Z,11.53
2024-05-09T02:15:31.108Z,11.53
2024-05-09T02:18:01.443Z,11.50
2024-05-09T02:24:46.469Z,11.47
2024-05-09T02:31:22.819Z,11.45
2024-05-09T02:33:53.081Z,11.44
2024-05-09T02:36:23.325Z,11.46
2024-05-09T02:38:50.881Z,11.47
2024-05-09T02:41:23.526Z,11.49
2024-05-09T02:43:50.956Z,11.50
2024-05-09T02:46:21.044Z,11.51
2024-05-09T02:48:48.587Z,11.51
2024-05-09T02:51:18.673Z,11.53
2024-05-09T02:53:46.328Z,11.53
2024-05-09T02:56:16.548Z,11.54
2024-05-09T02:58:46.643Z,11.55
2024-05-09T03:01:16.806Z,11.57
2024-05-09T03:03:45.286Z,11.59
2024-05-09T03:06:15.449Z,11.59
2024-05-09T03:08:45.521Z,11.62
2024-05-09T03:11:23.728Z,11.61
2024-05-09T03:13:54.805Z,11.62
2024-05-09T03:16:24.861Z,11.64
2024-05-09T03:18:52.604Z,11.63
2024-05-09T03:21:22.695Z,11.66
2024-05-09T03:23:50.243Z,11.68
2024-05-09T03:26:21.563Z,11.68
2024-05-09T03:28:49.077Z,11.69
2024-05-09T03:31:21.812Z,11.71
2024-05-09T03:33:49.447Z,11.72
2024-05-09T03:36:19.987Z,11.74
2024-05-09T03:38:51.311Z,11.76
2024-05-09T03:41:22.752Z,11.78
2024-05-09T03:43:53.066Z,11.79
2024-05-09T03:46:23.162Z,11.79
2024-05-09T03:48:53.367Z,11.82
2024-05-09T03:51:20.920Z,11.82
2024-05-09T03:53:50.998Z,11.82
2024-05-09T03:56:18.690Z,11.81
2024-05-09T03:58:48.760Z,11.78
2024-05-09T04:01:16.978Z,11.77
2024-05-09T04:03:49.852Z,11.75
2024-05-09T04:06:21.380Z,11.74
2024-05-09T04:08:51.600Z,11.76
2024-05-09T04:11:19.395Z,11.73
2024-05-09T04:13:49.431Z,11.73
2024-05-09T04:16:17.003Z,11.72
2024-05-09T04:18:49.839Z,11.70
2024-05-09T04:21:18.796Z,11.70
2024-05-09T04:23:49.062Z,11.69
2024-05-09T04:26:16.723Z,11.70
2024-05-09T04:28:46.841Z,11.70
2024-05-09T04:31:15.016Z,11.69
2024-05-09T04:33:45.137Z,11.69
2024-05-09T04:36:15.334Z,11.66
2024-05-09T04:38:45.421Z,11.65
2024-05-09T04:41:12.912Z,11.62
2024-05-09T04:43:42.986Z,11.63
2024-05-09T04:46:10.373Z,11.61
2024-05-09T04:48:40.472Z,11.60
2024-05-09T04:51:08.052Z,11.59
2024-05-09T04:53:40.990Z,11.59
2024-05-09T04:56:08.994Z,11.57
2024-05-09T04:58:40.659Z,11.56
2024-05-09T05:01:08.121Z,11.57
2024-05-09T05:03:38.753Z,11.57
2024-05-09T05:06:06.468Z,11.57
2024-05-09T05:08:37.942Z,11.56
2024-05-09T05:11:08.343Z,11.55
2024-05-09T05:13:41.452Z,11.55
2024-05-09T05:16:09.277Z,11.57
2024-05-09T05:18:39.720Z,11.58
2024-05-09T05:21:07.162Z,11.60
2024-05-09T05:23:37.391Z,11.61
2024-05-09T05:26:08.440Z,11.64
2024-05-09T05:28:38.602Z,11.68
2024-05-09T05:31:06.341Z,11.71
2024-05-09T05:33:36.433Z,11.75
2024-05-09T05:36:04.397Z,11.79
2024-05-09T05:38:34.572Z,11.83
2024-05-09T05:41:02.098Z,11.87
2024-05-09T05:43:35.092Z,11.91
2024-05-09T05:46:02.471Z,11.95
2024-05-09T05:48:32.582Z,11.99
2024-05-09T05:51:02.663Z,12.03
2024-05-09T05:53:34.634Z,12.09
2024-05-09T05:56:02.251Z,12.14
2024-05-09T05:58:34.834Z,12.18
2024-05-09T06:01:02.601Z,12.22
2024-05-09T06:03:32.984Z,12.26
2024-05-09T06:06:03.285Z,12.33
2024-05-09T06:08:33.636Z,12.36
2024-05-09T06:11:01.373Z,12.41
2024-05-09T06:13:31.393Z,12.47
2024-05-09T06:16:02.387Z,12.51
2024-05-09T06:18:32.636Z,12.56
2024-05-09T06:21:00.259Z,12.62
2024-05-09T06:23:30.491Z,12.66
2024-05-09T06:25:58.147Z,12.70
2024-05-09T06:28:29.016Z,12.76
2024-05-09T06:30:56.500Z,12.81
2024-05-09T06:33:29.333Z,12.84
2024-05-09T06:35:59.403Z,12.89
2024-05-09T06:38:29.439Z,12.95
2024-05-09T06:40:57.060Z,13.01
2024-05-09T06:43:27.209Z,13.05
2024-05-09T06:45:54.672Z,13.10
2024-05-09T06:48:25.594Z,13.14
2024-05-09T06:50:55.800Z,13.20
2024-05-09T06:53:26.380Z,13.24
2024-05-09T06:55:54.030Z,13.30
2024-05-09T06:58:24.307Z,13.35
2024-05-09T07:00:51.991Z,13.40
2024-05-09T07:03:22.319Z,13.46
2024-05-09T07:05:50.111Z,13.51
2024-05-09T07:08:22.889Z,13.55
2024-05-09T07:10:56.555Z,13.62
2024-05-09T07:13:26.791Z,13.65
2024-05-09T07:15:54.314Z,13.70
2024-05-09T07:18:24.888Z,13.75
2024-05-09T07:20:52.613Z,13.79
2024-05-09T07:23:25.361Z,13.83
2024-05-09T07:25:53.198Z,13.87
2024-05-09T07:28:24.755Z,13.90
2024-05-09T07:30:52.396Z,13.94
2024-05-09T07:33:24.620Z,13.96
2024-05-09T07:35:53.159Z,14.01
2024-05-09T07:38:26.328Z,14.06
2024-05-09T07:40:53.829Z,14.11
2024-05-09T07:43:23.824Z,14.14
2024-05-09T07:45:54.899Z,14.19
2024-05-09T07:50:00.259Z,14.24
2024-05-09T07:53:53.441Z,14.33
2024-05-09T07:56:24.400Z,14.39
2024-05-09T07:58:56.477Z,14.43
2024-05-09T08:01:26.449Z,14.48
2024-05-09T08:03:57.537Z,14.53
2024-05-09T08:06:25.524Z,14.57
2024-05-09T08:09:02.775Z,14.61
2024-05-09T08:11:35.718Z,14.67
2024-05-09T08:14:03.311Z,14.73
2024-05-09T08:16:33.292Z,14.78
2024-05-09T08:19:01.623Z,14.84
2024-05-09T08:21:32.266Z,14.89
2024-05-09T08:24:02.466Z,14.94
2024-05-09T08:26:32.549Z,14.99
2024-05-09T08:28:59.975Z,15.04
2024-05-09T08:31:30.368Z,15.09
2024-05-09T08:33:58.206Z,15.16
2024-05-09T08:36:29.526Z,15.20
2024-05-09T08:38:57.006Z,15.26
2024-05-09T08:41:32.534Z,15.30
2024-05-09T08:44:00.171Z,15.36
2024-05-09T08:46:33.316Z,15.40
2024-05-09T08:49:03.830Z,15.44
2024-05-09T08:51:34.379Z,15.48
2024-05-09T08:54:01.906Z,15.51
2024-05-09T08:56:37.392Z,15.57
2024-05-09T08:59:09.273Z,15.62
2024-05-09T09:01:41.608Z,15.67
2024-05-09T09:04:11.021Z,15.73
2024-05-09T09:06:42.419Z,15.78
2024-05-09T09:09:10.599Z,15.84
2024-05-09T09:11:43.226Z,15.89
2024-05-09T09:14:11.196Z,15.93
2024-05-09T09:16:41.352Z,15.98
2024-05-09T09:19:08.907Z,16.03
2024-05-09T09:21:39.052Z,16.07
2024-05-09T09:24:09.940Z,16.12
2024-05-09T09:26:43.557Z,16.17
2024-05-09T09:29:11.422Z,16.22
2024-05-09T09:31:42.185Z,16.27
2024-05-09T09:34:09.966Z,16.30
2024-05-09T09:36:44.902Z,16.33
2024-05-09T09:39:17.473Z,16.39
2024-05-09T09:41:51.375Z,16.45
2024-05-09T09:44:21.989Z,16.51
2024-05-09T09:46:53.103Z,16.55
2024-05-09T09:49:20.709Z,16.61
2024-05-09T09:51:52.377Z,16.66
2024-05-09T09:54:20.791Z,16.69
2024-05-09T09:56:54.786Z,16.76
2024-05-09T09:59:23.043Z,16.85
2024-05-09T10:01:53.242Z,16.95
2024-05-09T10:04:21.160Z,17.04
2024-05-09T10:06:55.370Z,17.10
2024-05-09T10:09:23.553Z,17.14
2024-05-09T10:12:00.251Z,17.17
2024-05-09T10:14:30.883Z,17.20
2024-05-09T10:17:07.739Z,17.23
2024-05-09T10:19:35.391Z,17.25
2024-05-09T10:22:06.004Z,17.26
2024-05-09T10:24:48.150Z,17.27
2024-05-09T10:27:29.651Z,17.29
2024-05-09T10:29:58.425Z,17.30
2024-05-09T10:32:32.589Z,17.33
2024-05-09T10:35:00.962Z,17.38
2024-05-09T10:37:31.425Z,17.42
2024-05-09T10:40:00.528Z,17.46
2024-05-09T10:42:33.862Z,17.54
2024-05-09T10:45:03.026Z,17.60
2024-05-09T10:47:33.189Z,17.65
2024-05-09T10:50:01.349Z,17.68
2024-05-09T10:52:31.833Z,17.73
2024-05-09T10:55:00.411Z,17.79
2024-05-09T10:57:41.945Z,17.86
2024-05-09T11:00:15.960Z,17.93
2024-05-09T11:02:53.347Z,18.00
2024-05-09T11:05:22.981Z,18.08
2024-05-09T11:07:53.468Z,18.13
2024-05-09T11:10:27.654Z,18.19
2024-05-09T11:13:06.956Z,18.27
2024-05-09T11:15:40.832Z,18.37
2024-05-09T11:18:11.942Z,18.44
2024-05-09T11:20:39.566Z,18.50
2024-05-09T11:23:13.428Z,18.56
2024-05-09T11:25:40.898Z,18.58
2024-05-09T11:28:15.913Z,18.59
2024-05-09T11:30:43.417Z,18.59
2024-05-09T11:33:14.434Z,18.57
2024-05-09T11:35:42.349Z,18.56
2024-05-09T11:38:12.412Z,18.54
2024-05-09T11:40:43.345Z,18.53
2024-05-09T11:43:13.731Z,18.52
2024-05-09T11:45:43.824Z,18.50
2024-05-09T11:48:11.604Z,18.48
2024-05-09T11:50:42.241Z,18.46
2024-05-09T11:53:09.835Z,18.47
2024-05-09T11:55:40.188Z,18.48
2024-05-09T11:58:08.352Z,18.48
2024-05-09T12:00:41.214Z,18.50
2024-05-09T12:03:08.755Z,18.54
2024-05-09T12:05:38.900Z,18.56
2024-05-09T12:08:07.338Z,18.59
2024-05-09T12:10:37.682Z,18.63
2024-05-09T12:13:06.954Z,18.66
2024-05-09T12:15:41.064Z,18.69
2024-05-09T12:18:08.759Z,18.73
2024-05-09T12:20:40.092Z,18.75
2024-05-09T12:23:10.226Z,18.79
2024-05-09T12:25:41.745Z,18.84
2024-05-09T12:28:09.671Z,18.90
2024-05-09T12:30:42.380Z,18.98
2024-05-09T12:33:12.112Z,19.06
2024-05-09T12:35:45.706Z,19.16
2024-05-09T12:38:14.904Z,19.27
2024-05-09T12:40:45.857Z,19.37
2024-05-09T12:43:13.285Z,19.48
2024-05-09T12:45:46.791Z,19.58
2024-05-09T12:48:14.676Z,19.72
2024-05-09T12:50:44.969Z,19.80
2024-05-09T12:53:12.711Z,19.88
2024-05-09T12:55:48.938Z,19.96
2024-05-09T12:58:24.716Z,20.08
2024-05-09T13:00:57.682Z,20.19
2024-05-09T13:03:25.366Z,20.28
2024-05-09T13:05:56.175Z,20.37
2024-05-09T13:08:23.984Z,20.45
2024-05-09T13:10:54.332Z,20.52
2024-05-09T13:13:22.026Z,20.58
2024-05-09T13:15:52.247Z,20.66
2024-05-09T13:18:22.490Z,20.75
2024-05-09T13:20:52.505Z,20.86
2024-05-09T13:23:20.023Z,20.98
2024-05-09T13:25:50.309Z,21.08
2024-05-09T13:28:18.118Z,21.17
2024-05-09T13:30:48.301Z,21.25
2024-05-09T13:33:18.551Z,21.32
2024-05-09T13:35:50.731Z,21.35
2024-05-09T13:38:22.366Z,21.39
2024-05-09T13:40:50.700Z,21.45
2024-05-09T13:43:22.010Z,21.56
2024-05-09T13:45:50.158Z,21.63
2024-05-09T13:48:20.591Z,21.67
2024-05-09T13:50:50.931Z,21.63
2024-05-09T13:53:21.156Z,21.65
2024-05-09T13:55:48.947Z,21.66
2024-05-09T13:58:19.622Z,21.61
2024-05-09T14:00:49.038Z,21.61
2024-05-09T14:03:21.198Z,21.62
2024-05-09T14:05:54.384Z,21.66
2024-05-09T14:08:25.535Z,21.66
2024-05-09T14:10:54.713Z,21.71
2024-05-09T14:13:24.913Z,21.73
2024-05-09T14:15:52.601Z,21.75
2024-05-09T14:18:22.909Z,21.76
2024-05-09T14:20:53.171Z,21.78
2024-05-09T14:23:23.268Z,21.80
2024-05-09T14:25:52.972Z,21.82
2024-05-09T14:28:24.620Z,21.85
2024-05-09T14:30:52.838Z,21.89
2024-05-09T14:33:26.485Z,21.95
2024-05-09T14:35:57.269Z,21.98
2024-05-09T14:38:27.636Z,22.01
2024-05-09T14:40:55.427Z,22.04
2024-05-09T14:43:25.935Z,22.05
2024-05-09T14:45:53.727Z,22.06
2024-05-09T14:48:24.041Z,22.10
2024-05-09T14:50:52.079Z,22.16
2024-05-09T14:53:26.736Z,22.23
2024-05-09T14:55:54.598Z,22.31
2024-05-09T14:58:25.269Z,22.36
2024-05-09T15:00:53.132Z,22.41
2024-05-09T15:03:23.508Z,22.41
2024-05-09T15:05:51.970Z,22.38
2024-05-09T15:08:25.187Z,22.35
2024-05-09T15:10:53.311Z,22.31
2024-05-09T15:13:24.483Z,22.29
2024-05-09T15:15:52.271Z,22.29
2024-05-09T15:18:22.646Z,22.27
2024-05-09T15:20:50.397Z,22.26
2024-05-09T15:23:20.693Z,22.26
2024-05-09T15:25:51.084Z,22.26
2024-05-09T15:28:22.386Z,22.26
2024-05-09T15:30:50.088Z,22.26
2024-05-09T15:33:20.539Z,22.26
2024-05-09T15:35:48.264Z,22.30
2024-05-09T15:38:18.868Z,22.33
2024-05-09T15:40:46.535Z,22.38
2024-05-09T15:43:19.480Z,22.39
2024-05-09T15:45:47.161Z,22.38
2024-05-09T15:48:17.481Z,22.39
2024-05-09T15:50:45.147Z,22.42
2024-05-09T15:53:15.795Z,22.42
2024-05-09T15:55:43.753Z,22.40
2024-05-09T15:58:14.200Z,22.36
2024-05-09T16:00:46.386Z,22.33
2024-05-09T16:03:19.549Z,22.31
2024-05-09T16:05:48.180Z,22.31
2024-05-09T16:08:19.196Z,22.27
2024-05-09T16:10:48.282Z,22.23
2024-05-09T16:13:19.792Z,22.20
2024-05-09T16:15:50.599Z,22.15
2024-05-09T16:18:21.443Z,22.13
2024-05-09T16:20:50.280Z,22.09
2024-05-09T16:23:20.567Z,22.07
2024-05-09T16:25:48.599Z,22.02
2024-05-09T16:28:20.212Z,21.99
2024-05-09T16:30:51.459Z,21.96
2024-05-09T16:33:23.879Z,21.93
2024-05-09T16:35:51.730Z,21.89
2024-05-09T16:38:22.044Z,21.86
2024-05-09T16:40:49.785Z,21.82
2024-05-09T16:43:20.165Z,21.79
2024-05-09T16:45:47.762Z,21.74
2024-05-09T16:48:20.642Z,21.72
2024-05-09T16:50:49.525Z,21.68
2024-05-09T16:53:19.544Z,21.64
2024-05-09T16:55:46.982Z,21.61
2024-05-09T16:58:17.181Z,21.57
2024-05-09T17:00:44.816Z,21.55
2024-05-09T17:03:16.703Z,21.52
2024-05-09T17:05:47.935Z,21.51
2024-05-09T17:08:19.798Z,21.50
2024-05-09T17:10:48.911Z,21.49
2024-05-09T17:13:20.079Z,21.48
2024-05-09T17:15:50.810Z,21.46
2024-05-09T17:18:21.290Z,21.44
2024-05-09T17:20:54.029Z,21.41
2024-05-09T17:23:21.656Z,21.39
2024-05-09T17:25:51.695Z,21.36
2024-05-09T17:28:19.530Z,21.33
2024-05-09T17:30:49.834Z,21.34
2024-05-09T17:33:17.608Z,21.33
2024-05-09T17:35:50.758Z,21.35
2024-05-09T17:38:23.283Z,21.32
2024-05-09T17:40:55.489Z,21.33
2024-05-09T17:43:23.249Z,21.32
2024-05-09T17:45:53.324Z,21.29
2024-05-09T17:48:20.906Z,21.28
2024-05-09T17:50:51.377Z,21.27
2024-05-09T17:53:21.556Z,21.25
2024-05-09T17:55:53.790Z,21.24
2024-05-09T17:58:21.750Z,21.22
2024-05-09T18:00:51.984Z,21.18
2024-05-09T18:03:19.947Z,21.18
2024-05-09T18:05:49.998Z,21.15
2024-05-09T18:08:17.532Z,21.13
2024-05-09T18:10:51.436Z,21.10
2024-05-09T18:13:19.492Z,21.07
2024-05-09T18:15:49.774Z,21.03
2024-05-09T18:18:17.349Z,20.99
2024-05-09T18:20:47.565Z,20.94
2024-05-09T18:23:17.092Z,20.87
2024-05-09T18:25:54.589Z,20.82
2024-05-09T18:28:23.237Z,20.74
2024-05-09T18:30:53.335Z,20.67
2024-05-09T18:33:20.801Z,20.61
2024-05-09T18:35:50.930Z,20.55
2024-05-09T18:38:25.481Z,20.48
2024-05-09T18:40:55.873Z,20.40
2024-05-09T18:43:31.193Z,20.31
2024-05-09T18:46:05.742Z,20.24
2024-05-09T18:48:36.029Z,20.17
2024-05-09T18:51:05.102Z,20.09
2024-05-09T18:53:35.088Z,20.01
2024-05-09T18:56:05.815Z,19.93
2024-05-09T18:58:35.964Z,19.85
2024-05-09T19:01:06.386Z,19.78
2024-05-09T19:03:36.775Z,19.69
2024-05-09T19:06:04.964Z,19.60
2024-05-09T19:08:35.041Z,19.51
2024-05-09T19:11:05.627Z,19.44
2024-05-09T19:13:35.899Z,19.35
2024-05-09T19:16:03.657Z,19.27
2024-05-09T19:18:34.088Z,19.18
2024-05-09T19:21:01.704Z,19.11
2024-05-09T19:23:35.340Z,19.02
2024-05-09T19:26:08.511Z,18.93
2024-05-09T19:28:40.399Z,18.86
2024-05-09T19:31:07.807Z,18.79
2024-05-09T19:33:38.898Z,18.70
2024-05-09T19:36:07.994Z,18.62
2024-05-09T19:38:38.597Z,18.56
2024-05-09T19:41:08.657Z,18.50
2024-05-09T19:43:38.828Z,18.44
2024-05-09T19:46:06.362Z,18.40
2024-05-09T19:48:36.660Z,18.35
2024-05-09T19:51:04.504Z,18.28
2024-05-09T19:53:34.563Z,18.21
2024-05-09T19:56:02.106Z,18.15
2024-05-09T19:58:34.788Z,18.09
2024-05-09T20:01:04.914Z,18.04
2024-05-09T20:03:36.797Z,17.98
2024-05-09T20:06:07.616Z,17.93
2024-05-09T20:08:35.033Z,17.88
2024-05-09T20:11:05.184Z,17.84
2024-05-09T20:13:35.196Z,17.80
2024-05-09T20:16:05.141Z,17.75
2024-05-09T20:18:32.709Z,17.69
2024-05-09T20:21:03.016Z,17.65
2024-05-09T20:23:30.553Z,17.62
2024-05-09T20:26:00.943Z,17.59
2024-05-09T20:28:28.635Z,17.55
2024-05-09T20:31:01.709Z,17.53
2024-05-09T20:33:29.882Z,17.49
2024-05-09T20:36:01.812Z,17.46
2024-05-09T20:38:29.896Z,17.43
2024-05-09T20:40:59.960Z,17.39
2024-05-09T20:43:27.398Z,17.34
2024-05-09T20:45:57.459Z,17.30
2024-05-09T20:48:27.598Z,17.27
2024-05-09T20:50:58.437Z,17.24
2024-05-09T20:53:25.876Z,17.23
2024-05-09T20:55:55.805Z,17.21
2024-05-09T20:58:23.356Z,17.17
2024-05-09T21:00:53.667Z,17.15
2024-05-09T21:03:21.288Z,17.13
2024-05-09T21:05:54.221Z,17.11
2024-05-09T21:08:22.767Z,17.09
2024-05-09T21:10:53.432Z,17.07
2024-05-09T21:13:21.146Z,17.03
2024-05-09T21:15:51.533Z,17.01
2024-05-09T21:18:19.606Z,16.97
2024-05-09T21:20:49.662Z,16.94
2024-05-09T21:23:19.649Z,16.93
2024-05-09T21:25:49.757Z,16.89
2024-05-09T21:28:17.277Z,16.85
2024-05-09T21:30:47.319Z,16.82
2024-05-09T21:33:15.403Z,16.80
2024-05-09T21:35:46.015Z,16.77
2024-05-09T21:38:14.637Z,16.74
2024-05-09T21:40:47.957Z,16.70
2024-05-09T21:43:15.627Z,16.67
2024-05-09T21:45:45.950Z,16.65
2024-05-09T21:48:13.832Z,16.59
2024-05-09T21:50:44.353Z,16.55
2024-05-09T21:53:14.977Z,16.51
2024-05-09T21:55:48.047Z,16.47
2024-05-09T21:58:16.029Z,16.43
2024-05-09T22:00:46.668Z,16.40
2024-05-09T22:03:15.132Z,16.37
2024-05-09T22:05:45.571Z,16.33
2024-05-09T22:08:13.412Z,16.29
2024-05-09T22:10:43.770Z,16.26
2024-05-09T22:13:15.635Z,16.23
2024-05-09T22:15:45.861Z,16.20
2024-05-09T22:18:14.146Z,16.16
2024-05-09T22:20:46.316Z,16.14
2024-05-09T22:23:15.243Z,16.10
2024-05-09T22:25:45.422Z,16.08
2024-05-09T22:28:16.589Z,16.03
2024-05-09T22:30:47.708Z,16.00
2024-05-09T22:33:15.787Z,15.99
2024-05-09T22:35:47.690Z,15.97
2024-05-09T22:38:15.117Z,15.93
2024-05-09T22:40:48.573Z,15.90
2024-05-09T22:43:24.623Z,15.89
2024-05-09T22:45:56.388Z,15.87
2024-05-09T22:48:25.132Z,15.84
2024-05-09T22:50:56.173Z,15.82
2024-05-09T22:53:24.676Z,15.80
2024-05-09T22:55:55.042Z,15.79
2024-05-09T22:58:25.939Z,15.78
2024-05-09T23:00:56.270Z,15.74
2024-05-09T23:03:23.967Z,15.72
2024-05-09T23:05:54.165Z,15.71
2024-05-09T23:08:21.947Z,15.69
2024-05-09T23:10:52.230Z,15.68
2024-05-09T23:13:20.078Z,15.66
2024-05-09T23:15:52.943Z,15.67
2024-05-09T23:18:20.664Z,15.64
2024-05-09T23:20:52.103Z,15.63
2024-05-09T23:23:19.822Z,15.59
2024-05-09T23:25:49.948Z,15.55
2024-05-09T23:28:20.024Z,15.50
2024-05-09T23:30:50.190Z,15.46
2024-05-09T23:33:20.415Z,15.43
2024-05-09T23:35:47.996Z,15.38
2024-05-09T23:38:20.923Z,15.35
2024-05-09T23:40:50.050Z,15.31
2024-05-09T23:43:20.322Z,15.28
2024-05-09T23:45:50.544Z,15.27
2024-05-09T23:48:20.660Z,15.23
2024-05-09T23:50:48.204Z,15.20
2024-05-09T23:53:18.614Z,15.16
2024-05-09T23:55:46.030Z,15.14
2024-05-09T23:58:16.229Z,15.11
